sensor_id;sensor_type;location;lat;lon;timestamp;temperature;humidity
29501;DHT22;16450;50.288;10.966;2023-03-20T00:02:33;8.70;99.90
29501;DHT22;16450;50.288;10.966;2023-03-20T00:05:35;8.70;99.90
29501;DHT22;16450;50.288;10.966;2023-03-20T00:08:37;8.70;99.90
29501;DHT22;16450;50.288;10.966;2023-03-20T00:11:46;8.70;99.90
29501;DHT22;16450;50.288;10.966;2023-03-20T00:14:49;8.70;99.90
29501;DHT22;16450;50.288;10.966;2023-03-20T00:17:51;8.60;99.90
29501;DHT22;16450;50.288;10.966;2023-03-20T00:20:53;8.70;99.90
29501;DHT22;16450;50.288;10.966;2023-03-20T00:23:55;8.70;99.90
29501;DHT22;16450;50.288;10.966;2023-03-20T00:26:57;8.60;99.90
29501;DHT22;16450;50.288;10.966;2023-03-20T00:29:59;8.60;99.90
29501;DHT22;16450;50.288;10.966;2023-03-20T00:33:01;8.60;99.90
29501;DHT22;16450;50.288;10.966;2023-03-20T00:36:03;8.60;99.90
29501;DHT22;16450;50.288;10.966;2023-03-20T00:39:07;8.60;99.90
29501;DHT22;16450;50.288;10.966;2023-03-20T00:42:19;8.60;99.90
29501;DHT22;16450;50.288;10.966;2023-03-20T00:45:22;8.50;99.90
29501;DHT22;16450;50.288;10.966;2023-03-20T00:48:24;8.60;99.90
29501;DHT22;16450;50.288;10.966;2023-03-20T00:51:27;8.50;99.90
29501;DHT22;16450;50.288;10.966;2023-03-20T00:54:29;8.50;99.90
29501;DHT22;16450;50.288;10.966;2023-03-20T00:57:56;8.50;99.90
29501;DHT22;16450;50.288;10.966;2023-03-20T01:00:58;8.50;99.90
29501;DHT22;16450;50.288;10.966;2023-03-20T01:04:00;8.50;99.90
29501;DHT22;16450;50.288;10.966;2023-03-20T01:07:03;8.50;99.90
29501;DHT22;16450;50.288;10.966;2023-03-20T01:10:05;8.30;99.90
29501;DHT22;16450;50.288;10.966;2023-03-20T01:13:17;8.50;99.90
29501;DHT22;16450;50.288;10.966;2023-03-20T01:16:22;8.50;99.90
29501;DHT22;16450;50.288;10.966;2023-03-20T01:19:24;8.50;99.90
29501;DHT22;16450;50.288;10.966;2023-03-20T01:22:27;8.50;99.90
29501;DHT22;16450;50.288;10.966;2023-03-20T01:25:29;8.40;99.90
29501;DHT22;16450;50.288;10.966;2023-03-20T01:28:30;8.40;99.90
29501;DHT22;16450;50.288;10.966;2023-03-20T01:31:32;8.40;99.90
29501;DHT22;16450;50.288;10.966;2023-03-20T01:34:34;8.40;99.90
29501;DHT22;16450;50.288;10.966;2023-03-20T01:37:36;8.40;99.90
29501;DHT22;16450;50.288;10.966;2023-03-20T01:44:19;8.40;99.90
29501;DHT22;16450;50.288;10.966;2023-03-20T01:47:23;8.40;99.90
29501;DHT22;16450;50.288;10.966;2023-03-20T01:50:31;8.30;99.90
29501;DHT22;16450;50.288;10.966;2023-03-20T01:53:33;8.30;99.90
29501;DHT22;16450;50.288;10.966;2023-03-20T01:56:39;8.30;99.90
29501;DHT22;16450;50.288;10.966;2023-03-20T01:59:56;8.30;99.90
29501;DHT22;16450;50.288;10.966;2023-03-20T02:02:58;8.30;99.90
29501;DHT22;16450;50.288;10.966;2023-03-20T02:06:00;8.30;99.90
29501;DHT22;16450;50.288;10.966;2023-03-20T02:09:03;8.30;99.90
29501;DHT22;16450;50.288;10.966;2023-03-20T02:12:05;8.30;99.90
29501;DHT22;16450;50.288;10.966;2023-03-20T02:15:10;8.30;99.90
29501;DHT22;16450;50.288;10.966;2023-03-20T02:18:13;8.20;99.90
29501;DHT22;16450;50.288;10.966;2023-03-20T02:31:24;8.20;99.90
29501;DHT22;16450;50.288;10.966;2023-03-20T02:34:55;8.20;99.90
29501;DHT22;16450;50.288;10.966;2023-03-20T02:41:30;8.20;99.90
29501;DHT22;16450;50.288;10.966;2023-03-20T02:44:54;8.20;99.90
29501;DHT22;16450;50.288;10.966;2023-03-20T02:51:32;8.20;99.90
29501;DHT22;16450;50.288;10.966;2023-03-20T02:58:29;8.20;99.90
29501;DHT22;16450;50.288;10.966;2023-03-20T03:01:42;8.20;99.90
29501;DHT22;16450;50.288;10.966;2023-03-20T03:04:55;8.20;99.90
29501;DHT22;16450;50.288;10.966;2023-03-20T03:08:00;8.20;99.90
29501;DHT22;16450;50.288;10.966;2023-03-20T03:11:06;8.20;99.90
29501;DHT22;16450;50.288;10.966;2023-03-20T03:14:13;8.20;99.90
29501;DHT22;16450;50.288;10.966;2023-03-20T03:17:18;8.20;99.90
29501;DHT22;16450;50.288;10.966;2023-03-20T03:20:25;8.20;99.90
29501;DHT22;16450;50.288;10.966;2023-03-20T03:23:34;8.10;99.90
29501;DHT22;16450;50.288;10.966;2023-03-20T03:26:38;8.20;99.90
29501;DHT22;16450;50.288;10.966;2023-03-20T03:29:42;8.20;99.90
29501;DHT22;16450;50.288;10.966;2023-03-20T03:33:13;8.10;99.90
29501;DHT22;16450;50.288;10.966;2023-03-20T03:39:48;8.10;99.90
29501;DHT22;16450;50.288;10.966;2023-03-20T03:43:50;8.10;99.90
29501;DHT22;16450;50.288;10.966;2023-03-20T03:46:45;8.10;99.90
29501;DHT22;16450;50.288;10.966;2023-03-20T03:49:55;8.10;99.90
29501;DHT22;16450;50.288;10.966;2023-03-20T03:53:03;8.10;99.90
29501;DHT22;16450;50.288;10.966;2023-03-20T03:56:10;8.10;99.90
29501;DHT22;16450;50.288;10.966;2023-03-20T03:59:22;8.10;99.90
29501;DHT22;16450;50.288;10.966;2023-03-20T04:02:25;8.10;99.90
29501;DHT22;16450;50.288;10.966;2023-03-20T04:05:29;8.10;99.90
29501;DHT22;16450;50.288;10.966;2023-03-20T04:08:33;8.00;99.90
29501;DHT22;16450;50.288;10.966;2023-03-20T04:11:35;8.10;99.90
29501;DHT22;16450;50.288;10.966;2023-03-20T04:14:37;8.10;99.90
29501;DHT22;16450;50.288;10.966;2023-03-20T04:17:39;8.10;99.90
29501;DHT22;16450;50.288;10.966;2023-03-20T04:20:42;8.00;99.90
29501;DHT22;16450;50.288;10.966;2023-03-20T04:23:44;8.00;99.90
29501;DHT22;16450;50.288;10.966;2023-03-20T04:26:46;8.00;99.90
29501;DHT22;16450;50.288;10.966;2023-03-20T04:29:48;8.00;99.90
29501;DHT22;16450;50.288;10.966;2023-03-20T04:32:50;8.00;99.90
29501;DHT22;16450;50.288;10.966;2023-03-20T04:35:52;8.00;99.90
29501;DHT22;16450;50.288;10.966;2023-03-20T04:38:54;7.90;99.90
29501;DHT22;16450;50.288;10.966;2023-03-20T04:41:58;8.00;99.90
29501;DHT22;16450;50.288;10.966;2023-03-20T04:45:00;7.90;99.90
29501;DHT22;16450;50.288;10.966;2023-03-20T04:48:02;7.90;99.90
29501;DHT22;16450;50.288;10.966;2023-03-20T04:51:04;7.90;99.90
29501;DHT22;16450;50.288;10.966;2023-03-20T04:54:06;7.90;99.90
29501;DHT22;16450;50.288;10.966;2023-03-20T04:57:08;7.90;99.90
29501;DHT22;16450;50.288;10.966;2023-03-20T05:00:10;7.90;99.90
29501;DHT22;16450;50.288;10.966;2023-03-20T05:03:12;7.90;99.90
29501;DHT22;16450;50.288;10.966;2023-03-20T05:06:14;7.90;99.90
29501;DHT22;16450;50.288;10.966;2023-03-20T05:09:16;7.90;99.90
29501;DHT22;16450;50.288;10.966;2023-03-20T05:12:18;7.90;99.90
29501;DHT22;16450;50.288;10.966;2023-03-20T05:15:20;7.90;99.90
29501;DHT22;16450;50.288;10.966;2023-03-20T05:18:22;7.90;99.90
29501;DHT22;16450;50.288;10.966;2023-03-20T05:21:23;7.90;99.90
29501;DHT22;16450;50.288;10.966;2023-03-20T05:24:25;7.90;99.90
29501;DHT22;16450;50.288;10.966;2023-03-20T05:27:29;7.90;99.90
29501;DHT22;16450;50.288;10.966;2023-03-20T05:30:31;8.00;99.90
29501;DHT22;16450;50.288;10.966;2023-03-20T05:33:33;7.90;99.90
29501;DHT22;16450;50.288;10.966;2023-03-20T05:36:38;8.00;99.90
29501;DHT22;16450;50.288;10.966;2023-03-20T05:39:40;8.00;99.90
29501;DHT22;16450;50.288;10.966;2023-03-20T05:42:42;8.00;99.90
29501;DHT22;16450;50.288;10.966;2023-03-20T05:45:45;8.00;99.90
29501;DHT22;16450;50.288;10.966;2023-03-20T05:48:47;8.00;99.90
29501;DHT22;16450;50.288;10.966;2023-03-20T05:51:49;8.00;99.90
29501;DHT22;16450;50.288;10.966;2023-03-20T05:54:51;8.00;99.90
29501;DHT22;16450;50.288;10.966;2023-03-20T05:57:52;8.00;99.90
29501;DHT22;16450;50.288;10.966;2023-03-20T06:00:56;8.00;99.90
29501;DHT22;16450;50.288;10.966;2023-03-20T06:03:58;8.10;99.90
29501;DHT22;16450;50.288;10.966;2023-03-20T06:07:00;8.10;99.90
29501;DHT22;16450;50.288;10.966;2023-03-20T06:10:02;8.10;99.90
29501;DHT22;16450;50.288;10.966;2023-03-20T06:13:04;8.10;99.90
29501;DHT22;16450;50.288;10.966;2023-03-20T06:16:06;8.20;99.90
29501;DHT22;16450;50.288;10.966;2023-03-20T06:19:09;8.10;99.90
29501;DHT22;16450;50.288;10.966;2023-03-20T06:22:10;8.20;99.90
29501;DHT22;16450;50.288;10.966;2023-03-20T06:25:12;8.30;99.90
29501;DHT22;16450;50.288;10.966;2023-03-20T06:28:15;8.30;99.90
29501;DHT22;16450;50.288;10.966;2023-03-20T06:31:17;8.30;99.90
29501;DHT22;16450;50.288;10.966;2023-03-20T06:34:19;8.30;99.90
29501;DHT22;16450;50.288;10.966;2023-03-20T06:37:21;8.30;99.90
29501;DHT22;16450;50.288;10.966;2023-03-20T06:40:23;8.30;99.90
29501;DHT22;16450;50.288;10.966;2023-03-20T06:43:25;8.30;99.90
29501;DHT22;16450;50.288;10.966;2023-03-20T06:46:27;8.40;99.90
29501;DHT22;16450;50.288;10.966;2023-03-20T06:49:29;8.40;99.90
29501;DHT22;16450;50.288;10.966;2023-03-20T06:52:31;8.40;99.90
29501;DHT22;16450;50.288;10.966;2023-03-20T06:55:33;8.50;99.90
29501;DHT22;16450;50.288;10.966;2023-03-20T06:58:35;8.50;99.90
29501;DHT22;16450;50.288;10.966;2023-03-20T07:01:37;8.50;99.90
29501;DHT22;16450;50.288;10.966;2023-03-20T07:04:39;8.50;99.90
29501;DHT22;16450;50.288;10.966;2023-03-20T07:07:41;8.50;99.90
29501;DHT22;16450;50.288;10.966;2023-03-20T07:10:43;8.60;99.90
29501;DHT22;16450;50.288;10.966;2023-03-20T07:13:45;8.50;99.90
29501;DHT22;16450;50.288;10.966;2023-03-20T07:16:50;8.60;99.90
29501;DHT22;16450;50.288;10.966;2023-03-20T07:19:52;8.60;99.90
29501;DHT22;16450;50.288;10.966;2023-03-20T07:22:54;8.60;99.90
29501;DHT22;16450;50.288;10.966;2023-03-20T07:25:56;8.70;99.90
29501;DHT22;16450;50.288;10.966;2023-03-20T07:28:58;8.70;99.90
29501;DHT22;16450;50.288;10.966;2023-03-20T07:32:00;8.70;99.90
29501;DHT22;16450;50.288;10.966;2023-03-20T07:35:03;8.80;99.90
29501;DHT22;16450;50.288;10.966;2023-03-20T07:38:05;8.80;99.90
29501;DHT22;16450;50.288;10.966;2023-03-20T07:41:07;8.80;99.90
29501;DHT22;16450;50.288;10.966;2023-03-20T07:44:09;8.80;99.90
29501;DHT22;16450;50.288;10.966;2023-03-20T07:47:11;8.80;99.90
29501;DHT22;16450;50.288;10.966;2023-03-20T07:50:13;8.90;99.90
29501;DHT22;16450;50.288;10.966;2023-03-20T07:53:14;8.90;99.90
29501;DHT22;16450;50.288;10.966;2023-03-20T07:56:16;8.90;99.90
29501;DHT22;16450;50.288;10.966;2023-03-20T07:59:18;8.90;99.90
29501;DHT22;16450;50.288;10.966;2023-03-20T08:02:20;9.00;99.90
29501;DHT22;16450;50.288;10.966;2023-03-20T08:05:22;9.00;99.90
29501;DHT22;16450;50.288;10.966;2023-03-20T08:08:27;9.00;99.90
29501;DHT22;16450;50.288;10.966;2023-03-20T08:11:29;9.00;99.90
29501;DHT22;16450;50.288;10.966;2023-03-20T08:14:34;9.00;99.90
29501;DHT22;16450;50.288;10.966;2023-03-20T08:17:37;9.10;99.90
29501;DHT22;16450;50.288;10.966;2023-03-20T08:20:38;9.10;99.90
29501;DHT22;16450;50.288;10.966;2023-03-20T08:23:41;9.10;99.90
29501;DHT22;16450;50.288;10.966;2023-03-20T08:26:43;9.10;99.90
29501;DHT22;16450;50.288;10.966;2023-03-20T08:29:46;9.20;99.90
29501;DHT22;16450;50.288;10.966;2023-03-20T08:32:48;9.20;99.90
29501;DHT22;16450;50.288;10.966;2023-03-20T08:35:57;9.20;99.90
29501;DHT22;16450;50.288;10.966;2023-03-20T08:38:59;9.20;99.90
29501;DHT22;16450;50.288;10.966;2023-03-20T08:42:00;9.30;99.90
29501;DHT22;16450;50.288;10.966;2023-03-20T08:45:03;9.20;99.90
29501;DHT22;16450;50.288;10.966;2023-03-20T08:48:04;9.20;99.90
29501;DHT22;16450;50.288;10.966;2023-03-20T08:51:07;9.20;99.90
29501;DHT22;16450;50.288;10.966;2023-03-20T08:54:09;9.30;99.90
29501;DHT22;16450;50.288;10.966;2023-03-20T08:57:11;9.40;99.90
29501;DHT22;16450;50.288;10.966;2023-03-20T09:00:14;9.30;99.90
29501;DHT22;16450;50.288;10.966;2023-03-20T09:03:18;9.30;99.90
29501;DHT22;16450;50.288;10.966;2023-03-20T09:06:20;9.30;99.90
29501;DHT22;16450;50.288;10.966;2023-03-20T09:09:22;9.40;99.90
29501;DHT22;16450;50.288;10.966;2023-03-20T09:12:30;9.40;99.90
29501;DHT22;16450;50.288;10.966;2023-03-20T09:15:34;9.40;99.90
29501;DHT22;16450;50.288;10.966;2023-03-20T09:18:36;9.40;99.90
29501;DHT22;16450;50.288;10.966;2023-03-20T09:21:38;9.40;99.90
29501;DHT22;16450;50.288;10.966;2023-03-20T09:24:40;9.50;99.90
29501;DHT22;16450;50.288;10.966;2023-03-20T09:27:42;9.50;99.90
29501;DHT22;16450;50.288;10.966;2023-03-20T09:30:44;9.50;99.90
29501;DHT22;16450;50.288;10.966;2023-03-20T09:33:46;9.50;99.90
29501;DHT22;16450;50.288;10.966;2023-03-20T09:36:48;9.50;99.90
29501;DHT22;16450;50.288;10.966;2023-03-20T09:39:50;9.40;99.90
29501;DHT22;16450;50.288;10.966;2023-03-20T09:43:00;9.40;99.90
29501;DHT22;16450;50.288;10.966;2023-03-20T09:46:10;9.40;99.90
29501;DHT22;16450;50.288;10.966;2023-03-20T09:49:31;9.40;99.90
29501;DHT22;16450;50.288;10.966;2023-03-20T09:52:49;9.40;99.90
29501;DHT22;16450;50.288;10.966;2023-03-20T09:55:54;9.40;99.90
29501;DHT22;16450;50.288;10.966;2023-03-20T09:59:02;9.50;99.90
29501;DHT22;16450;50.288;10.966;2023-03-20T10:02:13;9.50;99.90
29501;DHT22;16450;50.288;10.966;2023-03-20T10:08:27;9.70;99.90
29501;DHT22;16450;50.288;10.966;2023-03-20T10:11:49;9.80;99.90
29501;DHT22;16450;50.288;10.966;2023-03-20T10:18:39;10.00;99.90
29501;DHT22;16450;50.288;10.966;2023-03-20T10:21:47;10.10;99.90
29501;DHT22;16450;50.288;10.966;2023-03-20T10:28:20;10.20;99.90
29501;DHT22;16450;50.288;10.966;2023-03-20T10:31:35;10.30;99.90
29501;DHT22;16450;50.288;10.966;2023-03-20T10:35:03;10.30;99.90
29501;DHT22;16450;50.288;10.966;2023-03-20T10:41:55;10.40;99.90
29501;DHT22;16450;50.288;10.966;2023-03-20T10:45:28;10.50;99.90
29501;DHT22;16450;50.288;10.966;2023-03-20T10:49:00;10.60;99.90
29501;DHT22;16450;50.288;10.966;2023-03-20T10:52:27;10.60;99.90
29501;DHT22;16450;50.288;10.966;2023-03-20T10:55:31;10.60;99.90
29501;DHT22;16450;50.288;10.966;2023-03-20T10:58:39;10.70;99.90
29501;DHT22;16450;50.288;10.966;2023-03-20T11:01:42;10.70;99.90
29501;DHT22;16450;50.288;10.966;2023-03-20T11:04:43;10.80;99.90
29501;DHT22;16450;50.288;10.966;2023-03-20T11:07:48;10.90;99.90
29501;DHT22;16450;50.288;10.966;2023-03-20T11:10:59;10.90;99.90
29501;DHT22;16450;50.288;10.966;2023-03-20T11:14:13;11.00;99.90
29501;DHT22;16450;50.288;10.966;2023-03-20T11:17:17;11.00;99.90
29501;DHT22;16450;50.288;10.966;2023-03-20T11:20:19;11.10;99.90
29501;DHT22;16450;50.288;10.966;2023-03-20T11:23:28;11.10;99.90
29501;DHT22;16450;50.288;10.966;2023-03-20T11:26:37;11.20;99.90
29501;DHT22;16450;50.288;10.966;2023-03-20T11:29:41;11.20;99.90
29501;DHT22;16450;50.288;10.966;2023-03-20T11:32:48;11.30;99.90
29501;DHT22;16450;50.288;10.966;2023-03-20T11:35:52;11.40;99.90
29501;DHT22;16450;50.288;10.966;2023-03-20T11:39:11;11.50;99.90
29501;DHT22;16450;50.288;10.966;2023-03-20T11:42:22;11.60;99.90
29501;DHT22;16450;50.288;10.966;2023-03-20T11:45:25;11.60;99.90
29501;DHT22;16450;50.288;10.966;2023-03-20T11:48:42;11.70;99.90
29501;DHT22;16450;50.288;10.966;2023-03-20T11:51:46;11.80;99.90
29501;DHT22;16450;50.288;10.966;2023-03-20T11:54:50;11.80;99.90
29501;DHT22;16450;50.288;10.966;2023-03-20T11:57:58;11.90;99.90
29501;DHT22;16450;50.288;10.966;2023-03-20T12:01:02;11.90;99.90
29501;DHT22;16450;50.288;10.966;2023-03-20T12:04:13;11.90;99.90
29501;DHT22;16450;50.288;10.966;2023-03-20T12:07:23;11.90;99.90
29501;DHT22;16450;50.288;10.966;2023-03-20T12:10:30;12.00;99.90
29501;DHT22;16450;50.288;10.966;2023-03-20T12:13:38;12.00;99.90
29501;DHT22;16450;50.288;10.966;2023-03-20T12:16:41;12.00;99.90
29501;DHT22;16450;50.288;10.966;2023-03-20T12:19:48;12.10;99.90
29501;DHT22;16450;50.288;10.966;2023-03-20T12:26:10;12.00;99.90
29501;DHT22;16450;50.288;10.966;2023-03-20T12:29:35;12.00;99.90
29501;DHT22;16450;50.288;10.966;2023-03-20T12:32:46;11.90;99.90
29501;DHT22;16450;50.288;10.966;2023-03-20T12:35:52;11.90;99.90
29501;DHT22;16450;50.288;10.966;2023-03-20T12:38:55;11.90;99.90
29501;DHT22;16450;50.288;10.966;2023-03-20T12:45:20;11.90;99.90
29501;DHT22;16450;50.288;10.966;2023-03-20T12:48:31;12.00;99.90
29501;DHT22;16450;50.288;10.966;2023-03-20T12:51:57;12.00;99.90
29501;DHT22;16450;50.288;10.966;2023-03-20T12:55:15;12.00;99.90
29501;DHT22;16450;50.288;10.966;2023-03-20T12:58:44;12.00;99.90
29501;DHT22;16450;50.288;10.966;2023-03-20T13:02:11;12.10;99.90
29501;DHT22;16450;50.288;10.966;2023-03-20T13:11:57;12.20;99.90
29501;DHT22;16450;50.288;10.966;2023-03-20T13:31:50;12.00;99.90
29501;DHT22;16450;50.288;10.966;2023-03-20T13:38:34;11.90;99.90
29501;DHT22;16450;50.288;10.966;2023-03-20T13:41:38;12.00;99.90
29501;DHT22;16450;50.288;10.966;2023-03-20T13:44:40;12.00;99.90
29501;DHT22;16450;50.288;10.966;2023-03-20T13:47:44;12.10;99.90
29501;DHT22;16450;50.288;10.966;2023-03-20T13:51:22;12.20;99.90
29501;DHT22;16450;50.288;10.966;2023-03-20T14:01:35;12.40;99.90
29501;DHT22;16450;50.288;10.966;2023-03-20T14:04:39;12.40;99.90
29501;DHT22;16450;50.288;10.966;2023-03-20T14:07:43;12.30;99.90
29501;DHT22;16450;50.288;10.966;2023-03-20T14:10:45;12.30;99.90
29501;DHT22;16450;50.288;10.966;2023-03-20T14:13:54;12.30;99.90
29501;DHT22;16450;50.288;10.966;2023-03-20T14:17:02;12.30;99.90
29501;DHT22;16450;50.288;10.966;2023-03-20T14:20:11;12.30;99.90
29501;DHT22;16450;50.288;10.966;2023-03-20T14:23:34;12.30;99.90
29501;DHT22;16450;50.288;10.966;2023-03-20T14:26:37;12.20;99.90
29501;DHT22;16450;50.288;10.966;2023-03-20T14:29:42;12.00;99.90
29501;DHT22;16450;50.288;10.966;2023-03-20T14:32:53;12.10;99.90
29501;DHT22;16450;50.288;10.966;2023-03-20T14:36:20;12.00;99.90
29501;DHT22;16450;50.288;10.966;2023-03-20T14:42:57;12.00;99.90
29501;DHT22;16450;50.288;10.966;2023-03-20T14:46:07;12.00;99.90
29501;DHT22;16450;50.288;10.966;2023-03-20T14:49:35;11.90;99.90
29501;DHT22;16450;50.288;10.966;2023-03-20T14:59:04;11.80;99.90
29501;DHT22;16450;50.288;10.966;2023-03-20T15:02:28;11.70;99.90
29501;DHT22;16450;50.288;10.966;2023-03-20T15:05:34;11.60;99.90
29501;DHT22;16450;50.288;10.966;2023-03-20T15:08:43;11.50;99.90
29501;DHT22;16450;50.288;10.966;2023-03-20T15:11:46;11.40;99.90
29501;DHT22;16450;50.288;10.966;2023-03-20T15:15:02;11.30;99.90
29501;DHT22;16450;50.288;10.966;2023-03-20T15:18:12;11.20;99.90
29501;DHT22;16450;50.288;10.966;2023-03-20T15:21:17;11.10;99.90
29501;DHT22;16450;50.288;10.966;2023-03-20T15:24:25;11.00;99.90
29501;DHT22;16450;50.288;10.966;2023-03-20T15:27:27;11.00;99.90
29501;DHT22;16450;50.288;10.966;2023-03-20T15:30:32;11.00;99.90
29501;DHT22;16450;50.288;10.966;2023-03-20T15:33:39;11.00;99.90
29501;DHT22;16450;50.288;10.966;2023-03-20T15:36:43;10.90;99.90
29501;DHT22;16450;50.288;10.966;2023-03-20T15:39:47;10.90;99.90
29501;DHT22;16450;50.288;10.966;2023-03-20T15:42:59;10.90;99.90
29501;DHT22;16450;50.288;10.966;2023-03-20T15:46:04;11.00;99.90
29501;DHT22;16450;50.288;10.966;2023-03-20T15:49:20;11.00;99.90
29501;DHT22;16450;50.288;10.966;2023-03-20T15:55:39;11.00;99.90
29501;DHT22;16450;50.288;10.966;2023-03-20T15:58:42;11.00;99.90
29501;DHT22;16450;50.288;10.966;2023-03-20T16:01:46;11.00;99.90
29501;DHT22;16450;50.288;10.966;2023-03-20T16:04:51;11.00;99.90
29501;DHT22;16450;50.288;10.966;2023-03-20T16:07:55;11.00;99.90
29501;DHT22;16450;50.288;10.966;2023-03-20T16:11:02;11.10;99.90
29501;DHT22;16450;50.288;10.966;2023-03-20T16:14:06;11.10;99.90
29501;DHT22;16450;50.288;10.966;2023-03-20T16:17:11;11.10;99.90
29501;DHT22;16450;50.288;10.966;2023-03-20T16:20:15;11.10;99.90
29501;DHT22;16450;50.288;10.966;2023-03-20T16:23:48;11.10;99.90
29501;DHT22;16450;50.288;10.966;2023-03-20T16:26:50;11.10;99.90
29501;DHT22;16450;50.288;10.966;2023-03-20T16:29:53;11.10;99.90
29501;DHT22;16450;50.288;10.966;2023-03-20T16:33:00;11.10;99.90
29501;DHT22;16450;50.288;10.966;2023-03-20T16:36:03;11.10;99.90
29501;DHT22;16450;50.288;10.966;2023-03-20T16:39:17;11.00;99.90
29501;DHT22;16450;50.288;10.966;2023-03-20T16:42:28;11.00;99.90
29501;DHT22;16450;50.288;10.966;2023-03-20T16:45:32;11.00;99.90
29501;DHT22;16450;50.288;10.966;2023-03-20T16:48:36;11.00;99.90
29501;DHT22;16450;50.288;10.966;2023-03-20T16:51:42;11.00;99.90
29501;DHT22;16450;50.288;10.966;2023-03-20T16:54:44;11.00;99.90
29501;DHT22;16450;50.288;10.966;2023-03-20T16:57:49;10.90;99.90
29501;DHT22;16450;50.288;10.966;2023-03-20T17:04:19;10.80;99.90
29501;DHT22;16450;50.288;10.966;2023-03-20T17:07:23;10.80;99.90
29501;DHT22;16450;50.288;10.966;2023-03-20T17:10:28;10.80;99.90
29501;DHT22;16450;50.288;10.966;2023-03-20T17:13:30;10.70;99.90
29501;DHT22;16450;50.288;10.966;2023-03-20T17:16:32;10.70;99.90
29501;DHT22;16450;50.288;10.966;2023-03-20T17:19:34;10.70;99.90
29501;DHT22;16450;50.288;10.966;2023-03-20T17:22:36;10.60;99.90
29501;DHT22;16450;50.288;10.966;2023-03-20T17:25:39;10.60;99.90
29501;DHT22;16450;50.288;10.966;2023-03-20T17:28:41;10.60;99.90
29501;DHT22;16450;50.288;10.966;2023-03-20T17:31:43;10.50;99.90
29501;DHT22;16450;50.288;10.966;2023-03-20T17:34:45;10.70;99.90
29501;DHT22;16450;50.288;10.966;2023-03-20T17:37:47;10.50;99.90
29501;DHT22;16450;50.288;10.966;2023-03-20T17:40:50;10.40;99.90
29501;DHT22;16450;50.288;10.966;2023-03-20T17:43:53;10.40;99.90
29501;DHT22;16450;50.288;10.966;2023-03-20T17:46:57;10.40;99.90
29501;DHT22;16450;50.288;10.966;2023-03-20T17:49:59;10.40;99.90
29501;DHT22;16450;50.288;10.966;2023-03-20T17:53:01;10.30;99.90
29501;DHT22;16450;50.288;10.966;2023-03-20T17:56:10;10.30;99.90
29501;DHT22;16450;50.288;10.966;2023-03-20T17:59:13;10.30;99.90
29501;DHT22;16450;50.288;10.966;2023-03-20T18:02:16;10.30;99.90
29501;DHT22;16450;50.288;10.966;2023-03-20T18:05:19;10.30;99.90
29501;DHT22;16450;50.288;10.966;2023-03-20T18:08:21;10.30;99.90
29501;DHT22;16450;50.288;10.966;2023-03-20T18:11:24;10.30;99.90
29501;DHT22;16450;50.288;10.966;2023-03-20T18:14:27;10.30;99.90
29501;DHT22;16450;50.288;10.966;2023-03-20T18:17:28;10.30;99.90
29501;DHT22;16450;50.288;10.966;2023-03-20T18:20:33;10.20;99.90
29501;DHT22;16450;50.288;10.966;2023-03-20T18:23:35;10.20;99.90
29501;DHT22;16450;50.288;10.966;2023-03-20T18:26:37;10.20;99.90
29501;DHT22;16450;50.288;10.966;2023-03-20T18:29:39;10.20;99.90
29501;DHT22;16450;50.288;10.966;2023-03-20T18:32:41;10.20;99.90
29501;DHT22;16450;50.288;10.966;2023-03-20T18:35:43;10.10;99.90
29501;DHT22;16450;50.288;10.966;2023-03-20T18:38:46;10.00;99.90
29501;DHT22;16450;50.288;10.966;2023-03-20T18:41:48;10.00;99.90
29501;DHT22;16450;50.288;10.966;2023-03-20T18:44:50;10.00;99.90
29501;DHT22;16450;50.288;10.966;2023-03-20T18:47:53;10.00;99.90
29501;DHT22;16450;50.288;10.966;2023-03-20T18:50:55;9.90;99.90
29501;DHT22;16450;50.288;10.966;2023-03-20T18:54:01;9.90;99.90
29501;DHT22;16450;50.288;10.966;2023-03-20T18:57:03;9.90;99.90
29501;DHT22;16450;50.288;10.966;2023-03-20T19:03:15;9.80;99.90
29501;DHT22;16450;50.288;10.966;2023-03-20T19:06:20;9.80;99.90
29501;DHT22;16450;50.288;10.966;2023-03-20T19:09:22;9.80;99.90
29501;DHT22;16450;50.288;10.966;2023-03-20T19:12:24;10.00;99.90
29501;DHT22;16450;50.288;10.966;2023-03-20T19:15:28;9.80;99.90
29501;DHT22;16450;50.288;10.966;2023-03-20T19:18:30;9.80;99.90
29501;DHT22;16450;50.288;10.966;2023-03-20T19:21:33;9.80;99.90
29501;DHT22;16450;50.288;10.966;2023-03-20T19:24:35;9.70;99.90
29501;DHT22;16450;50.288;10.966;2023-03-20T19:27:37;9.70;99.90
29501;DHT22;16450;50.288;10.966;2023-03-20T19:30:40;9.70;99.90
29501;DHT22;16450;50.288;10.966;2023-03-20T19:33:42;9.70;99.90
29501;DHT22;16450;50.288;10.966;2023-03-20T19:36:44;9.70;99.90
29501;DHT22;16450;50.288;10.966;2023-03-20T19:39:49;9.70;99.90
29501;DHT22;16450;50.288;10.966;2023-03-20T19:42:50;9.70;99.90
29501;DHT22;16450;50.288;10.966;2023-03-20T19:46:03;9.70;99.90
29501;DHT22;16450;50.288;10.966;2023-03-20T19:49:07;9.70;99.90
29501;DHT22;16450;50.288;10.966;2023-03-20T19:52:17;9.70;99.90
29501;DHT22;16450;50.288;10.966;2023-03-20T19:55:25;9.70;99.90
29501;DHT22;16450;50.288;10.966;2023-03-20T19:58:28;9.70;99.90
29501;DHT22;16450;50.288;10.966;2023-03-20T20:01:30;9.70;99.90
29501;DHT22;16450;50.288;10.966;2023-03-20T20:04:32;9.60;99.90
29501;DHT22;16450;50.288;10.966;2023-03-20T20:07:34;9.60;99.90
29501;DHT22;16450;50.288;10.966;2023-03-20T20:10:56;9.60;99.90
29501;DHT22;16450;50.288;10.966;2023-03-20T20:13:58;9.60;99.90
29501;DHT22;16450;50.288;10.966;2023-03-20T20:17:10;9.60;99.90
29501;DHT22;16450;50.288;10.966;2023-03-20T20:20:15;9.60;99.90
29501;DHT22;16450;50.288;10.966;2023-03-20T20:23:20;9.50;99.90
29501;DHT22;16450;50.288;10.966;2023-03-20T20:26:22;9.50;99.90
29501;DHT22;16450;50.288;10.966;2023-03-20T20:29:25;9.50;99.90
29501;DHT22;16450;50.288;10.966;2023-03-20T20:32:27;9.50;99.90
29501;DHT22;16450;50.288;10.966;2023-03-20T20:35:31;9.40;99.90
29501;DHT22;16450;50.288;10.966;2023-03-20T20:38:53;9.40;99.90
29501;DHT22;16450;50.288;10.966;2023-03-20T20:41:56;9.40;99.90
29501;DHT22;16450;50.288;10.966;2023-03-20T20:44:58;9.40;99.90
29501;DHT22;16450;50.288;10.966;2023-03-20T20:48:01;9.30;99.90
29501;DHT22;16450;50.288;10.966;2023-03-20T20:51:04;9.30;99.90
29501;DHT22;16450;50.288;10.966;2023-03-20T20:54:07;9.20;99.90
29501;DHT22;16450;50.288;10.966;2023-03-20T20:57:09;9.30;99.90
29501;DHT22;16450;50.288;10.966;2023-03-20T21:00:13;9.20;99.90
29501;DHT22;16450;50.288;10.966;2023-03-20T21:03:15;9.20;99.90
29501;DHT22;16450;50.288;10.966;2023-03-20T21:06:18;9.20;99.90
29501;DHT22;16450;50.288;10.966;2023-03-20T21:09:19;9.10;99.90